createdAt,value
2019-04-16T00:01:01.246Z,14.95
2019-04-16T00:03:28.183Z,14.89
2019-04-16T00:05:58.476Z,14.82
2019-04-16T00:08:27.954Z,14.77
2019-04-16T00:10:53.002Z,14.73
2019-04-16T00:13:19.869Z,14.67
2019-04-16T00:15:46.745Z,14.63
2019-04-16T00:18:18.494Z,14.63
2019-04-16T00:20:42.936Z,14.64
2019-04-16T00:23:10.080Z,14.60
2019-04-16T00:25:36.947Z,14.52
2019-04-16T00:28:04.102Z,14.47
2019-04-16T00:30:35.485Z,14.48
2019-04-16T00:32:59.920Z,14.40
2019-04-16T00:35:26.880Z,14.29
2019-04-16T00:37:53.739Z,14.21
2019-04-16T00:40:20.949Z,14.19
2019-04-16T00:42:47.835Z,14.26
2019-04-16T00:45:15.735Z,14.29
2019-04-16T00:47:42.670Z,14.29
2019-04-16T00:50:09.549Z,14.35
2019-04-16T00:52:36.953Z,14.42
2019-04-16T00:55:05.589Z,14.48
2019-04-16T00:57:32.485Z,14.47
2019-04-16T00:59:59.435Z,14.45
2019-04-16T01:02:26.744Z,14.42
2019-04-16T01:04:53.822Z,14.41
2019-04-16T01:07:20.696Z,14.30
2019-04-16T01:09:47.993Z,14.16
2019-04-16T01:12:14.849Z,14.07
2019-04-16T01:14:43.559Z,14.03
2019-04-16T01:17:12.148Z,13.98
2019-04-16T01:19:41.047Z,13.98
2019-04-16T01:22:07.743Z,13.97
2019-04-16T01:24:34.682Z,13.98
2019-04-16T01:27:01.568Z,13.92
2019-04-16T01:29:28.549Z,13.84
2019-04-16T01:31:55.510Z,13.83
2019-04-16T01:34:22.446Z,13.78
2019-04-16T01:36:51.371Z,13.77
2019-04-16T01:39:19.013Z,13.81
2019-04-16T01:41:45.980Z,13.81
2019-04-16T01:44:12.852Z,13.73
2019-04-16T01:46:40.050Z,13.64
2019-04-16T01:49:09.983Z,13.56
2019-04-16T01:51:37.759Z,13.57
2019-04-16T01:54:04.069Z,13.61
2019-04-16T01:56:31.338Z,13.64
2019-04-16T01:58:58.446Z,13.71
2019-04-16T02:01:26.026Z,13.67
2019-04-16T02:03:52.977Z,13.53
2019-04-16T02:06:19.896Z,13.44
2019-04-16T02:08:46.910Z,13.47
2019-04-16T02:11:13.867Z,13.49
2019-04-16T02:13:45.880Z,13.45
2019-04-16T02:16:09.347Z,13.34
2019-04-16T02:18:36.300Z,13.27
2019-04-16T02:21:03.572Z,13.28
2019-04-16T02:23:30.905Z,13.33
2019-04-16T02:25:57.763Z,13.34
2019-04-16T02:28:27.985Z,13.34
2019-04-16T02:30:53.559Z,13.32
2019-04-16T02:33:20.721Z,13.30
2019-04-16T02:35:47.635Z,13.20
2019-04-16T02:38:14.601Z,13.08
2019-04-16T02:40:41.559Z,12.98
2019-04-16T02:43:08.516Z,12.97
2019-04-16T02:45:36.545Z,12.95
2019-04-16T02:48:03.534Z,12.86
2019-04-16T02:50:32.002Z,12.79
2019-04-16T02:53:00.286Z,12.72
2019-04-16T02:55:27.238Z,12.67
2019-04-16T02:57:59.520Z,12.69
2019-04-16T03:00:23.087Z,12.82
2019-04-16T03:02:53.695Z,12.81
2019-04-16T03:05:18.623Z,12.72
2019-04-16T03:07:45.502Z,12.67
2019-04-16T03:10:13.888Z,12.68
2019-04-16T03:12:40.953Z,12.81
2019-04-16T03:15:07.848Z,12.92
2019-04-16T03:17:35.177Z,12.99
2019-04-16T03:20:02.162Z,13.02
2019-04-16T03:22:30.647Z,13.00
2019-04-16T03:24:58.475Z,12.95
2019-04-16T03:27:25.829Z,12.86
2019-04-16T03:29:52.732Z,12.76
2019-04-16T03:32:19.666Z,12.76
2019-04-16T03:34:46.625Z,12.76
2019-04-16T03:37:13.485Z,12.64
2019-04-16T03:39:43.775Z,12.58
2019-04-16T03:42:08.968Z,12.58
2019-04-16T03:44:37.518Z,12.58
2019-04-16T03:47:04.539Z,12.60
2019-04-16T03:49:31.408Z,12.62
2019-04-16T03:51:58.656Z,12.60
2019-04-16T03:54:25.571Z,12.60
2019-04-16T03:56:52.879Z,12.47
2019-04-16T03:59:19.826Z,12.33
2019-04-16T04:01:46.872Z,12.22
2019-04-16T04:04:13.885Z,12.18
2019-04-16T04:06:40.851Z,12.19
2019-04-16T04:09:08.090Z,12.17
2019-04-16T04:11:35.261Z,12.16
2019-04-16T04:14:02.208Z,12.17
2019-04-16T04:16:30.551Z,12.28
2019-04-16T04:18:58.344Z,12.37
2019-04-16T04:21:25.229Z,12.38
2019-04-16T04:23:52.123Z,12.37
2019-04-16T04:26:19.022Z,12.43
2019-04-16T04:28:48.625Z,12.50
2019-04-16T04:31:14.769Z,12.56
2019-04-16T04:33:43.091Z,12.55
2019-04-16T04:36:10.233Z,12.50
2019-04-16T04:38:38.258Z,12.45
2019-04-16T04:41:05.450Z,12.43
2019-04-16T04:43:32.743Z,12.42
2019-04-16T04:46:00.070Z,12.39
2019-04-16T04:48:27.259Z,12.44
2019-04-16T04:50:54.208Z,12.47
2019-04-16T04:53:21.520Z,12.48
2019-04-16T04:55:48.399Z,12.54
2019-04-16T04:58:15.292Z,12.59
2019-04-16T05:00:42.569Z,12.67
2019-04-16T05:03:09.441Z,12.68
2019-04-16T05:05:36.393Z,12.70
2019-04-16T05:08:03.594Z,12.79
2019-04-16T05:10:30.480Z,12.89
2019-04-16T05:12:57.805Z,13.03
2019-04-16T05:15:26.378Z,13.19
2019-04-16T05:17:53.633Z,13.33
2019-04-16T05:20:20.512Z,13.51
2019-04-16T05:22:47.414Z,13.66
2019-04-16T05:25:14.365Z,13.77
2019-04-16T05:27:41.692Z,13.91
2019-04-16T05:30:08.613Z,14.01
2019-04-16T05:32:35.823Z,14.03
2019-04-16T05:35:02.716Z,14.16
2019-04-16T05:37:29.688Z,14.33
2019-04-16T05:39:58.888Z,14.39
2019-04-16T05:42:26.326Z,14.48
2019-04-16T05:44:53.417Z,14.61
2019-04-16T05:47:20.293Z,14.75
2019-04-16T05:49:47.510Z,14.97
2019-04-16T05:52:14.769Z,15.05
2019-04-16T05:54:44.319Z,15.10
2019-04-16T05:57:10.256Z,15.25
2019-04-16T05:59:37.478Z,15.37
2019-04-16T06:02:04.369Z,15.54
2019-04-16T06:04:31.324Z,15.67
2019-04-16T06:07:02.901Z,15.75
2019-04-16T06:09:26.788Z,15.83
2019-04-16T06:11:53.661Z,15.91
2019-04-16T06:14:20.534Z,15.94
2019-04-16T06:16:47.723Z,16.06
2019-04-16T06:19:14.589Z,16.20
2019-04-16T06:21:41.500Z,16.52
2019-04-16T06:24:08.756Z,16.74
2019-04-16T06:26:35.724Z,16.80
2019-04-16T06:29:02.958Z,16.92
2019-04-16T06:31:29.920Z,16.92
2019-04-16T06:33:56.857Z,17.05
2019-04-16T06:36:23.772Z,17.24
2019-04-16T06:38:50.949Z,17.44
2019-04-16T06:41:18.188Z,17.62
2019-04-16T06:43:45.123Z,17.69
2019-04-16T06:46:12.007Z,17.75
2019-04-16T06:48:42.504Z,17.80
2019-04-16T06:51:12.524Z,17.80
2019-04-16T06:53:38.668Z,17.82
2019-04-16T06:56:08.681Z,17.82
2019-04-16T07:01:05.901Z,17.99
2019-04-16T07:01:41.666Z,17.94
2019-04-16T07:03:32.587Z,17.99
2019-04-16T07:06:03.664Z,18.16
2019-04-16T07:08:37.399Z,18.25
2019-04-16T07:10:57.185Z,18.29
2019-04-16T07:13:24.350Z,18.43
2019-04-16T07:15:56.407Z,18.59
2019-04-16T07:18:21.266Z,18.80
2019-04-16T07:20:48.600Z,18.98
2019-04-16T07:23:15.649Z,19.03
2019-04-16T07:25:44.138Z,19.05
2019-04-16T07:28:11.259Z,19.06
2019-04-16T07:30:40.060Z,19.12
2019-04-16T07:33:06.733Z,19.25
2019-04-16T07:35:33.674Z,19.34
2019-04-16T07:38:04.929Z,19.38
2019-04-16T07:40:29.879Z,19.34
2019-04-16T07:42:58.942Z,19.38
2019-04-16T07:45:25.729Z,19.42
2019-04-16T07:47:52.707Z,19.48
2019-04-16T07:50:19.657Z,19.50
2019-04-16T07:52:46.860Z,19.49
2019-04-16T07:55:13.816Z,19.50
2019-04-16T07:57:41.161Z,19.52
2019-04-16T08:00:09.638Z,19.51
2019-04-16T08:02:36.865Z,19.57
2019-04-16T08:05:07.507Z,19.73
2019-04-16T08:07:35.557Z,19.89
2019-04-16T08:10:06.507Z,20.03
2019-04-16T08:12:33.768Z,20.00
2019-04-16T08:15:12.559Z,19.95
2019-04-16T08:17:29.953Z,19.99
2019-04-16T08:19:57.290Z,19.96
2019-04-16T08:22:24.286Z,19.92
2019-04-16T08:24:51.245Z,19.92
2019-04-16T08:27:19.391Z,19.99
2019-04-16T08:29:46.465Z,20.05
2019-04-16T08:32:16.080Z,20.10
2019-04-16T08:34:42.288Z,20.14
2019-04-16T08:37:09.179Z,20.21
2019-04-16T08:39:36.930Z,20.24
2019-04-16T08:42:04.732Z,20.18
2019-04-16T08:44:35.460Z,20.21
2019-04-16T08:47:00.228Z,20.23
2019-04-16T08:49:27.123Z,20.27
2019-04-16T08:51:54.339Z,20.32
2019-04-16T08:54:21.483Z,20.36
2019-04-16T08:56:48.738Z,20.41
2019-04-16T08:59:16.011Z,20.43
2019-04-16T09:01:42.955Z,20.42
2019-04-16T09:04:09.917Z,20.43
2019-04-16T09:06:36.957Z,20.39
2019-04-16T09:09:12.895Z,20.43
2019-04-16T09:11:35.480Z,20.49
2019-04-16T09:14:01.468Z,20.47
2019-04-16T09:16:28.440Z,20.48
2019-04-16T09:18:55.593Z,20.43
2019-04-16T09:21:22.669Z,20.42
2019-04-16T09:23:49.966Z,20.34
2019-04-16T09:26:22.608Z,20.27
2019-04-16T09:28:46.123Z,20.26
2019-04-16T09:31:13.088Z,20.29
2019-04-16T09:33:40.034Z,20.30
2019-04-16T09:36:07.243Z,20.27
2019-04-16T09:38:34.135Z,20.20
2019-04-16T09:41:01.041Z,20.15
2019-04-16T09:43:28.493Z,20.08
2019-04-16T09:46:09.377Z,20.15
2019-04-16T09:48:24.618Z,20.24
2019-04-16T09:50:51.544Z,20.30
2019-04-16T09:53:32.191Z,20.34
2019-04-16T09:55:47.639Z,20.38
2019-04-16T09:58:15.623Z,20.39
2019-04-16T10:00:42.941Z,20.40
2019-04-16T10:03:10.212Z,20.35
2019-04-16T10:05:37.125Z,20.26
2019-04-16T10:08:04.196Z,20.20
2019-04-16T10:10:31.168Z,20.14
2019-04-16T10:12:58.483Z,20.16
2019-04-16T10:15:25.534Z,20.17
2019-04-16T10:17:52.898Z,20.09
2019-04-16T10:20:19.855Z,20.00
2019-04-16T10:22:46.755Z,19.98
2019-04-16T10:25:14.058Z,20.04
2019-04-16T10:27:41.398Z,20.17
2019-04-16T10:30:08.299Z,20.24
2019-04-16T10:32:35.348Z,20.29
2019-04-16T10:35:02.651Z,20.38
2019-04-16T10:37:40.146Z,20.38
2019-04-16T10:40:05.767Z,20.36
2019-04-16T10:42:33.510Z,20.26
2019-04-16T10:45:00.453Z,20.19
2019-04-16T10:47:27.758Z,20.17
2019-04-16T10:49:54.711Z,20.20
2019-04-16T10:52:22.401Z,20.24
2019-04-16T10:54:50.515Z,20.31
2019-04-16T10:57:19.396Z,20.40
2019-04-16T10:59:46.340Z,20.48
2019-04-16T11:02:13.304Z,20.51
2019-04-16T11:04:42.987Z,20.55
2019-04-16T11:07:10.071Z,20.65
2019-04-16T11:09:37.330Z,20.68
2019-04-16T11:12:05.293Z,20.66
2019-04-16T11:14:32.965Z,20.63
2019-04-16T11:16:59.925Z,20.62
2019-04-16T11:19:27.262Z,20.62
2019-04-16T11:21:54.615Z,20.57
2019-04-16T11:24:21.545Z,20.62
2019-04-16T11:26:48.774Z,20.59
2019-04-16T11:29:15.762Z,20.61
2019-04-16T11:31:43.014Z,20.66
2019-04-16T11:34:10.347Z,20.66
2019-04-16T11:36:37.630Z,20.70
2019-04-16T11:39:04.552Z,20.80
2019-04-16T11:41:32.223Z,20.87
2019-04-16T11:44:13.518Z,20.86
2019-04-16T11:46:27.813Z,20.81
2019-04-16T11:48:54.786Z,20.78
2019-04-16T11:51:21.784Z,20.85
2019-04-16T11:53:48.999Z,20.88
2019-04-16T11:56:16.244Z,20.94
2019-04-16T11:58:43.564Z,20.91
2019-04-16T12:01:10.738Z,20.78
2019-04-16T12:03:38.008Z,20.70
2019-04-16T12:06:06.098Z,20.65
2019-04-16T12:08:33.051Z,20.68
2019-04-16T12:11:00.277Z,20.73
2019-04-16T12:13:27.263Z,20.76
2019-04-16T12:15:54.216Z,20.78
2019-04-16T12:18:21.137Z,20.77
2019-04-16T12:20:48.222Z,20.80
2019-04-16T12:23:15.506Z,20.86
2019-04-16T12:25:42.863Z,20.87
2019-04-16T12:28:12.505Z,20.84
2019-04-16T12:30:39.092Z,20.87
2019-04-16T12:33:08.735Z,20.93
2019-04-16T12:35:35.539Z,20.97
2019-04-16T12:38:02.698Z,20.95
2019-04-16T12:40:29.658Z,20.97
2019-04-16T12:42:56.568Z,20.91
2019-04-16T12:45:23.487Z,20.82
2019-04-16T12:47:50.451Z,20.82
2019-04-16T12:50:17.542Z,20.84
2019-04-16T12:52:45.045Z,20.83
2019-04-16T12:55:12.055Z,20.83
2019-04-16T12:57:38.991Z,20.92
2019-04-16T13:00:05.926Z,21.01
2019-04-16T13:02:33.169Z,21.07
2019-04-16T13:05:00.447Z,21.06
2019-04-16T13:07:27.708Z,21.05
2019-04-16T13:09:54.937Z,21.10
2019-04-16T13:12:22.192Z,21.16
2019-04-16T13:15:00.493Z,21.19
2019-04-16T13:17:18.799Z,21.18
2019-04-16T13:19:46.728Z,21.20
2019-04-16T13:22:13.799Z,21.18
2019-04-16T13:24:40.730Z,21.21
2019-04-16T13:27:07.604Z,21.23
2019-04-16T13:29:34.523Z,21.14
2019-04-16T13:32:01.944Z,21.07
2019-04-16T13:34:28.838Z,21.07
2019-04-16T13:36:59.307Z,21.03
2019-04-16T13:39:24.912Z,20.99
2019-04-16T13:41:51.807Z,21.04
2019-04-16T13:44:18.772Z,21.04
2019-04-16T13:46:45.643Z,21.00
2019-04-16T13:49:13.230Z,21.05
2019-04-16T13:51:40.224Z,21.11
2019-04-16T13:54:07.104Z,21.16
2019-04-16T13:56:34.388Z,21.17
2019-04-16T13:59:01.286Z,21.23
2019-04-16T14:01:28.237Z,21.29
2019-04-16T14:03:56.459Z,21.34
2019-04-16T14:06:24.006Z,21.39
2019-04-16T14:08:51.256Z,21.44
2019-04-16T14:11:19.755Z,21.43
2019-04-16T14:13:50.066Z,21.42
2019-04-16T14:16:15.978Z,21.36
2019-04-16T14:18:42.869Z,21.30
2019-04-16T14:21:09.740Z,21.31
2019-04-16T14:23:36.909Z,21.36
2019-04-16T14:26:03.809Z,21.40
2019-04-16T14:28:34.285Z,21.42
2019-04-16T14:31:00.585Z,21.41
2019-04-16T14:33:27.664Z,21.41
2019-04-16T14:35:54.895Z,21.43
2019-04-16T14:38:22.182Z,21.40
2019-04-16T14:40:49.455Z,21.41
2019-04-16T14:43:16.818Z,21.42
2019-04-16T14:45:57.476Z,21.47
2019-04-16T14:48:12.812Z,21.54
2019-04-16T14:50:40.205Z,21.59
2019-04-16T14:53:07.429Z,21.63
2019-04-16T14:55:34.307Z,21.64
2019-04-16T14:58:01.244Z,21.66
2019-04-16T15:00:28.477Z,21.71
2019-04-16T15:02:56.333Z,21.73
2019-04-16T15:05:23.215Z,21.78
2019-04-16T15:07:50.170Z,21.82
2019-04-16T15:10:17.382Z,21.88
2019-04-16T15:12:44.357Z,21.83
2019-04-16T15:15:12.141Z,21.72
2019-04-16T15:17:40.184Z,21.64
2019-04-16T15:20:07.113Z,21.58
2019-04-16T15:22:34.418Z,21.58
2019-04-16T15:25:01.295Z,21.62
2019-04-16T15:27:35.420Z,21.59
2019-04-16T15:30:02.690Z,21.55
2019-04-16T15:32:29.644Z,21.60
2019-04-16T15:34:56.597Z,21.64
2019-04-16T15:37:25.651Z,21.62
2019-04-16T15:39:52.401Z,21.58
2019-04-16T15:42:19.657Z,21.60
2019-04-16T15:44:46.817Z,21.65
2019-04-16T15:47:14.953Z,21.62
2019-04-16T15:49:42.044Z,21.58
2019-04-16T15:52:10.130Z,21.61
2019-04-16T15:54:37.805Z,21.66
2019-04-16T15:57:08.026Z,21.72
2019-04-16T15:59:33.642Z,21.71
2019-04-16T16:02:00.872Z,21.64
2019-04-16T16:04:28.206Z,21.62
2019-04-16T16:06:55.088Z,21.68
2019-04-16T16:09:22.085Z,21.73
2019-04-16T16:11:51.142Z,21.69
2019-04-16T16:14:17.839Z,21.66
2019-04-16T16:16:47.829Z,21.63
2019-04-16T16:19:13.672Z,21.65
2019-04-16T16:21:40.565Z,21.66
2019-04-16T16:24:08.413Z,21.59
2019-04-16T16:26:35.957Z,21.58
2019-04-16T16:29:02.905Z,21.56
2019-04-16T16:31:35.092Z,21.58
2019-04-16T16:33:59.493Z,21.63
2019-04-16T16:36:26.406Z,21.65
2019-04-16T16:38:53.647Z,21.64
2019-04-16T16:41:20.902Z,21.68
2019-04-16T16:43:48.168Z,21.58
2019-04-16T16:46:15.150Z,21.29
2019-04-16T16:48:42.441Z,21.01
2019-04-16T16:51:09.696Z,20.78
2019-04-16T16:53:36.604Z,20.60
2019-04-16T16:56:03.793Z,20.47
2019-04-16T16:58:30.972Z,20.39
2019-04-16T17:01:00.360Z,20.31
2019-04-16T17:03:26.567Z,20.18
2019-04-16T17:05:54.074Z,20.08
2019-04-16T17:08:21.044Z,20.03
2019-04-16T17:10:48.331Z,19.98
2019-04-16T17:13:18.885Z,19.94
2019-04-16T17:15:43.838Z,19.89
2019-04-16T17:18:10.779Z,19.84
2019-04-16T17:20:38.341Z,19.84
2019-04-16T17:23:06.570Z,19.79
2019-04-16T17:25:36.477Z,19.71
2019-04-16T17:28:02.720Z,19.69
2019-04-16T17:30:29.793Z,19.63
2019-04-16T17:32:56.990Z,19.65
2019-04-16T17:35:23.853Z,19.63
2019-04-16T17:37:51.097Z,19.61
2019-04-16T17:40:17.980Z,19.61
2019-04-16T17:42:45.314Z,19.63
2019-04-16T17:45:12.543Z,19.62
2019-04-16T17:47:39.575Z,19.56
2019-04-16T17:50:06.538Z,19.56
2019-04-16T17:52:33.937Z,19.52
2019-04-16T17:55:01.180Z,19.50
2019-04-16T17:57:29.873Z,19.50
2019-04-16T18:00:00.457Z,19.56
2019-04-16T18:02:28.094Z,19.55
2019-04-16T18:04:55.559Z,19.47
2019-04-16T18:07:23.962Z,19.49
2019-04-16T18:09:50.891Z,19.46
2019-04-16T18:12:19.930Z,19.43
2019-04-16T18:14:46.421Z,19.38
2019-04-16T18:17:13.301Z,19.38
2019-04-16T18:19:40.261Z,19.35
2019-04-16T18:22:07.250Z,19.31
2019-04-16T18:24:34.549Z,19.31
2019-04-16T18:27:01.480Z,19.34
2019-04-16T18:29:31.787Z,19.33
2019-04-16T18:31:57.601Z,19.31
2019-04-16T18:34:26.073Z,19.26
2019-04-16T18:36:53.033Z,19.25
2019-04-16T18:39:19.934Z,19.28
2019-04-16T18:41:46.812Z,19.24
2019-04-16T18:44:13.836Z,19.25
2019-04-16T18:46:40.778Z,19.24
2019-04-16T18:49:07.747Z,19.27
2019-04-16T18:51:34.955Z,19.31
2019-04-16T18:54:01.925Z,19.33
2019-04-16T18:56:28.896Z,19.36
2019-04-16T18:58:55.894Z,19.34
2019-04-16T19:01:24.764Z,19.33
2019-04-16T19:03:52.840Z,19.35
2019-04-16T19:06:20.203Z,19.32
2019-04-16T19:08:47.577Z,19.26
2019-04-16T19:11:14.987Z,19.22
2019-04-16T19:13:47.579Z,19.23
2019-04-16T19:16:14.538Z,19.24
2019-04-16T19:18:41.846Z,19.20
2019-04-16T19:21:09.146Z,19.18
2019-04-16T19:23:36.214Z,19.20
2019-04-16T19:26:04.006Z,19.22
2019-04-16T19:28:31.407Z,19.24
2019-04-16T19:30:58.413Z,19.23
2019-04-16T19:33:25.690Z,19.27
2019-04-16T19:35:53.395Z,19.29
2019-04-16T19:38:20.677Z,19.27
2019-04-16T19:40:50.677Z,19.21
2019-04-16T19:43:16.796Z,19.20
2019-04-16T19:45:44.531Z,19.20
2019-04-16T19:48:17.588Z,19.21
2019-04-16T19:50:40.554Z,19.19
2019-04-16T19:53:13.732Z,19.19
2019-04-16T19:55:37.174Z,19.20
2019-04-16T19:58:04.686Z,19.20
2019-04-16T20:00:31.728Z,19.21
2019-04-16T20:02:58.667Z,19.21
2019-04-16T20:05:28.621Z,19.18
2019-04-16T20:07:54.221Z,19.17
2019-04-16T20:10:22.586Z,19.14
2019-04-16T20:12:49.834Z,19.12
2019-04-16T20:15:18.129Z,19.09
2019-04-16T20:17:45.092Z,19.06
2019-04-16T20:20:12.050Z,19.00
2019-04-16T20:22:40.386Z,18.95
2019-04-16T20:25:07.283Z,18.92
2019-04-16T20:27:36.206Z,18.92
2019-04-16T20:30:03.992Z,18.92
2019-04-16T20:32:34.178Z,18.95
2019-04-16T20:35:01.906Z,18.95
2019-04-16T20:37:28.690Z,18.92
2019-04-16T20:39:55.872Z,18.88
2019-04-16T20:42:23.425Z,18.86
2019-04-16T20:44:50.293Z,18.84
2019-04-16T20:47:17.522Z,18.84
2019-04-16T20:49:48.713Z,18.81
2019-04-16T20:52:13.051Z,18.74
2019-04-16T20:54:44.101Z,18.71
2019-04-16T20:57:08.525Z,18.64
2019-04-16T20:59:36.094Z,18.55
2019-04-16T21:02:04.259Z,18.48
2019-04-16T21:04:31.292Z,18.38
2019-04-16T21:06:58.249Z,18.28
2019-04-16T21:09:26.760Z,18.21
2019-04-16T21:11:53.904Z,18.12
2019-04-16T21:14:21.797Z,18.03
2019-04-16T21:16:49.913Z,17.99
2019-04-16T21:19:23.223Z,17.97
2019-04-16T21:21:46.135Z,17.96
2019-04-16T21:24:13.719Z,17.88
2019-04-16T21:26:41.142Z,17.85
2019-04-16T21:29:08.013Z,17.83
2019-04-16T21:31:34.887Z,17.79
2019-04-16T21:34:02.193Z,17.72
2019-04-16T21:36:29.184Z,17.69
2019-04-16T21:38:56.149Z,17.66
2019-04-16T21:41:25.652Z,17.62
2019-04-16T21:43:52.245Z,17.56
2019-04-16T21:46:20.410Z,17.51
2019-04-16T21:48:48.203Z,17.48
2019-04-16T21:51:19.077Z,17.41
2019-04-16T21:53:43.721Z,17.32
2019-04-16T21:56:10.602Z,17.26
2019-04-16T21:58:37.494Z,17.24
2019-04-16T22:01:05.231Z,17.22
2019-04-16T22:03:32.917Z,17.20
2019-04-16T22:06:00.153Z,17.17
2019-04-16T22:08:29.620Z,17.11
2019-04-16T22:10:55.913Z,17.10
2019-04-16T22:13:22.969Z,17.06
2019-04-16T22:15:50.182Z,17.04
2019-04-16T22:18:17.348Z,17.02
2019-04-16T22:20:44.602Z,17.03
2019-04-16T22:23:11.945Z,17.08
2019-04-16T22:25:39.102Z,17.06
2019-04-16T22:28:11.411Z,16.99
2019-04-16T22:30:34.810Z,16.90
2019-04-16T22:33:06.729Z,16.81
2019-04-16T22:35:32.112Z,16.78
2019-04-16T22:37:59.463Z,16.75
2019-04-16T22:40:26.344Z,16.69
2019-04-16T22:42:56.704Z,16.65
2019-04-16T22:45:21.991Z,16.66
2019-04-16T22:47:49.306Z,16.62
2019-04-16T22:50:17.406Z,16.63
2019-04-16T22:52:46.067Z,16.65
2019-04-16T22:55:13.500Z,16.67
2019-04-16T22:57:40.666Z,16.70
2019-04-16T23:00:11.460Z,16.72
2019-04-16T23:02:37.802Z,16.71
2019-04-16T23:05:04.995Z,16.62
2019-04-16T23:07:33.354Z,16.60
2019-04-16T23:10:00.605Z,16.58
2019-04-16T23:12:28.335Z,16.63
2019-04-16T23:14:55.415Z,16.68
2019-04-16T23:17:22.286Z,16.67
2019-04-16T23:19:51.653Z,16.61
2019-04-16T23:22:18.446Z,16.54
2019-04-16T23:24:45.402Z,16.46
2019-04-16T23:27:12.363Z,16.41
2019-04-16T23:29:39.240Z,16.42
2019-04-16T23:32:06.130Z,16.43
2019-04-16T23:34:34.910Z,16.48
2019-04-16T23:37:01.934Z,16.50
2019-04-16T23:39:28.885Z,16.40
2019-04-16T23:41:55.788Z,16.32
2019-04-16T23:44:25.336Z,16.31
2019-04-16T23:46:51.215Z,16.30
2019-04-16T23:49:20.020Z,16.27
2019-04-16T23:51:46.716Z,16.20
2019-04-16T23:54:13.667Z,16.15
2019-04-16T23:56:40.979Z,16.11
2019-04-16T23:59:07.878Z,16.09
